EDLPEDDH

Guest
Details From EDLP - Paderborn Lippstadt
To EDDH - Hamburg
Flight Number -
Tags Generated
Created
Modified
Stats Distance 133 nm / 246 km
Max Altitude 0 ft / 0 m
Waypoints 2
Social Downloads 3
Likes 0
Share VATSIM

Download

Looking for another format? Having issues loading an existing format? Contact us
Advertisement - Login to hide

Notes

Generated

Route

EDLP EDDH

ID Type Via Altitude Latitude Longitude Leg Dist Tot Dist Heading (true) Name
O EDLP APT - 0 ft / 0 m 51.60888˚ 8.60309˚ - 0 nm - -
O EDDH APT - 0 ft / 0 m 53.65441˚ 9.97521˚ 132 nm 132 nm 22° / 23° -

Altitude Profile

Advertisement - Login to hide

EDLP

Details ICAO EDLP (PAD)
Name Paderborn Lippstadt
Region Germany - Civil
Timezone Europe/Berlin (UTC+1.0)
Stats Elevation 699 ft / 213 m (AMSL)
Location 51.614166° 8.616336°
Runways 1
Magnetic Variation 2.357° E

METAR

EDLP 142050Z 16010KT 9999 SCT030 03/00 Q0990

Decode

TAF

TAF TAF EDLP 141700Z 1418/1518 21013KT 9999 BKN030 BECMG 1419/1422 21007KT TEMPO 1504/1508 BKN010 TEMPO 1513/1518 VRB03KT

Decode

Departure Runways

ID Width Length Bearing (true) Bearing (mag) Surface Threshold Offset Overrun Length
06 148 ft / 45 m 7,136 ft / 2,175 m 57.28° 54.92° Asphalt 0 ft / 0 m 1,066 ft / 325 m
24 148 ft / 45 m 7,136 ft / 2,175 m 237.30° 234.94° Asphalt 0 ft / 0 m 397 ft / 121 m

EDDH

Details ICAO EDDH (HAM)
Name Hamburg
Region Germany - Civil
Timezone Europe/Berlin (UTC+1.0)
Stats Elevation 53 ft / 16 m (AMSL)
Location 53.633665° 9.985235°
Runways 2
Magnetic Variation 2.786° E

METAR

EDDH 142050Z 22012KT 9999 FEW008 BKN012 03/01 Q0989 NOSIG

Decode

TAF

TAF AMD EDDH 141931Z 1419/1524 23008KT 9999 BKN020 TEMPO 1419/1423 BKN012 BECMG 1423/1502 BKN010 TEMPO 1502/1512 BKN008 BECMG 1509/1512 BKN015

Decode

Destination Runways

ID Width Length Bearing (true) Bearing (mag) Surface Threshold Offset Overrun Length
05 151 ft / 46 m 10,647 ft / 3,245 m 50.18° 47.39° Asphalt 978 ft / 298 m 194 ft / 59 m
15 151 ft / 46 m 12,013 ft / 3,662 m 152.89° 150.10° Asphalt 0 ft / 0 m 194 ft / 59 m
23 151 ft / 46 m 10,647 ft / 3,245 m 230.22° 227.43° Asphalt 509 ft / 155 m 240 ft / 73 m
33 151 ft / 46 m 12,013 ft / 3,662 m 332.91° 330.12° Asphalt 1,463 ft / 446 m 164 ft / 50 m

Approach Navaids

Runway Type Ident Frequency Range Bearing (true) Bearing (mag) Slope Elevation
05 Localiser IHHE 110.50 MHz 18 nm / 33 km 50.19° 47.41° - 45 ft / 14 m (AMSL)
05 Glidescope IHHE 110.50 MHz 10 nm / 19 km 50.20° 47.41° 3.00° 32 ft / 10 m (AMSL)
15 Localiser IHHS 111.35 MHz 18 nm / 33 km 152.89° 150.10° - 38 ft / 12 m (AMSL)
15 Glidescope IHHS 111.35 MHz 10 nm / 19 km 152.90° 150.11° 3.00° 53 ft / 16 m (AMSL)
23 Localiser IHHW 111.50 MHz 18 nm / 33 km 230.21° 227.42° - 36 ft / 11 m (AMSL)
23 Glidescope IHHW 111.50 MHz 10 nm / 19 km 230.20° 227.41° 3.00° 43 ft / 13 m (AMSL)
33 Localiser IHHN 109.90 MHz 18 nm / 33 km 332.88° 330.10° - 53 ft / 16 m (AMSL)

Popular Alternatives